sensor_id;sensor_type;location;lat;lon;timestamp;temperature;humidity
22813;DHT22;11573;51.334;3.244;2024-02-28T00:00:30;5.20;99.90
22813;DHT22;11573;51.334;3.244;2024-02-28T00:02:57;5.20;99.90
22813;DHT22;11573;51.334;3.244;2024-02-28T00:05:24;5.30;99.90
22813;DHT22;11573;51.334;3.244;2024-02-28T00:07:51;5.30;99.90
22813;DHT22;11573;51.334;3.244;2024-02-28T00:10:19;5.30;99.90
22813;DHT22;11573;51.334;3.244;2024-02-28T00:12:47;5.30;99.90
22813;DHT22;11573;51.334;3.244;2024-02-28T00:15:14;5.40;99.90
22813;DHT22;11573;51.334;3.244;2024-02-28T00:17:41;5.30;99.90
22813;DHT22;11573;51.334;3.244;2024-02-28T00:20:09;5.40;99.90
22813;DHT22;11573;51.334;3.244;2024-02-28T00:22:36;5.40;99.90
22813;DHT22;11573;51.334;3.244;2024-02-28T00:25:04;5.30;99.90
22813;DHT22;11573;51.334;3.244;2024-02-28T00:27:33;5.30;99.90
22813;DHT22;11573;51.334;3.244;2024-02-28T00:30:02;5.30;99.90
22813;DHT22;11573;51.334;3.244;2024-02-28T00:32:32;5.20;99.90
22813;DHT22;11573;51.334;3.244;2024-02-28T00:34:59;5.20;99.90
22813;DHT22;11573;51.334;3.244;2024-02-28T00:37:26;5.20;99.90
22813;DHT22;11573;51.334;3.244;2024-02-28T00:39:53;5.20;99.90
22813;DHT22;11573;51.334;3.244;2024-02-28T00:42:20;5.20;99.90
22813;DHT22;11573;51.334;3.244;2024-02-28T00:44:47;5.20;99.90
22813;DHT22;11573;51.334;3.244;2024-02-28T00:47:14;5.20;99.90
22813;DHT22;11573;51.334;3.244;2024-02-28T00:49:41;5.20;99.90
22813;DHT22;11573;51.334;3.244;2024-02-28T00:52:08;5.30;99.90
22813;DHT22;11573;51.334;3.244;2024-02-28T00:54:34;5.30;99.90
22813;DHT22;11573;51.334;3.244;2024-02-28T00:57:02;5.40;99.90
22813;DHT22;11573;51.334;3.244;2024-02-28T00:59:28;5.50;99.90
22813;DHT22;11573;51.334;3.244;2024-02-28T01:01:56;5.50;99.90
22813;DHT22;11573;51.334;3.244;2024-02-28T01:04:22;5.50;99.90
22813;DHT22;11573;51.334;3.244;2024-02-28T01:06:49;5.60;99.90
22813;DHT22;11573;51.334;3.244;2024-02-28T01:09:16;5.60;99.90
22813;DHT22;11573;51.334;3.244;2024-02-28T01:11:43;5.60;99.90
22813;DHT22;11573;51.334;3.244;2024-02-28T01:14:10;5.70;99.90
22813;DHT22;11573;51.334;3.244;2024-02-28T01:16:38;5.80;99.90
22813;DHT22;11573;51.334;3.244;2024-02-28T01:19:05;5.80;99.90
22813;DHT22;11573;51.334;3.244;2024-02-28T01:21:32;5.80;99.90
22813;DHT22;11573;51.334;3.244;2024-02-28T01:23:59;5.80;99.90
22813;DHT22;11573;51.334;3.244;2024-02-28T01:26:26;5.80;99.90
22813;DHT22;11573;51.334;3.244;2024-02-28T01:28:53;5.70;99.90
22813;DHT22;11573;51.334;3.244;2024-02-28T01:31:20;5.70;99.90
22813;DHT22;11573;51.334;3.244;2024-02-28T01:33:47;5.70;99.90
22813;DHT22;11573;51.334;3.244;2024-02-28T01:36:14;5.70;99.90
22813;DHT22;11573;51.334;3.244;2024-02-28T01:38:41;5.60;99.90
22813;DHT22;11573;51.334;3.244;2024-02-28T01:41:08;5.60;99.90
22813;DHT22;11573;51.334;3.244;2024-02-28T01:43:35;5.60;99.90
22813;DHT22;11573;51.334;3.244;2024-02-28T01:46:04;5.50;99.90
22813;DHT22;11573;51.334;3.244;2024-02-28T01:48:32;5.40;99.90
22813;DHT22;11573;51.334;3.244;2024-02-28T01:50:59;5.40;99.90
22813;DHT22;11573;51.334;3.244;2024-02-28T01:53:26;5.40;99.90
22813;DHT22;11573;51.334;3.244;2024-02-28T01:55:53;5.30;99.90
22813;DHT22;11573;51.334;3.244;2024-02-28T01:58:21;5.30;99.90
22813;DHT22;11573;51.334;3.244;2024-02-28T02:00:48;5.30;99.90
22813;DHT22;11573;51.334;3.244;2024-02-28T02:03:16;5.20;99.90
22813;DHT22;11573;51.334;3.244;2024-02-28T02:05:43;5.20;99.90
22813;DHT22;11573;51.334;3.244;2024-02-28T02:08:11;5.30;99.90
22813;DHT22;11573;51.334;3.244;2024-02-28T02:10:38;5.20;99.90
22813;DHT22;11573;51.334;3.244;2024-02-28T02:13:05;5.20;99.90
22813;DHT22;11573;51.334;3.244;2024-02-28T02:15:33;5.30;99.90
22813;DHT22;11573;51.334;3.244;2024-02-28T02:18:00;5.40;99.90
22813;DHT22;11573;51.334;3.244;2024-02-28T02:20:30;5.50;99.90
22813;DHT22;11573;51.334;3.244;2024-02-28T02:22:59;5.60;99.90
22813;DHT22;11573;51.334;3.244;2024-02-28T02:25:26;5.70;99.90
22813;DHT22;11573;51.334;3.244;2024-02-28T02:27:53;5.70;99.90
22813;DHT22;11573;51.334;3.244;2024-02-28T02:30:20;5.80;99.90
22813;DHT22;11573;51.334;3.244;2024-02-28T02:32:47;5.80;99.90
22813;DHT22;11573;51.334;3.244;2024-02-28T02:35:14;5.90;99.90
22813;DHT22;11573;51.334;3.244;2024-02-28T02:37:45;5.90;99.90
22813;DHT22;11573;51.334;3.244;2024-02-28T02:40:15;5.90;99.90
22813;DHT22;11573;51.334;3.244;2024-02-28T02:42:42;5.90;99.90
22813;DHT22;11573;51.334;3.244;2024-02-28T02:45:09;5.90;99.90
22813;DHT22;11573;51.334;3.244;2024-02-28T02:47:36;5.90;99.90
22813;DHT22;11573;51.334;3.244;2024-02-28T02:50:04;5.90;99.90
22813;DHT22;11573;51.334;3.244;2024-02-28T02:52:31;5.90;99.90
22813;DHT22;11573;51.334;3.244;2024-02-28T02:54:58;5.80;99.90
22813;DHT22;11573;51.334;3.244;2024-02-28T02:57:25;5.80;99.90
22813;DHT22;11573;51.334;3.244;2024-02-28T02:59:52;5.80;99.90
22813;DHT22;11573;51.334;3.244;2024-02-28T03:02:19;5.90;99.90
22813;DHT22;11573;51.334;3.244;2024-02-28T03:04:46;5.80;99.90
22813;DHT22;11573;51.334;3.244;2024-02-28T03:07:13;5.80;99.90
22813;DHT22;11573;51.334;3.244;2024-02-28T03:09:40;5.90;99.90
22813;DHT22;11573;51.334;3.244;2024-02-28T03:12:08;5.90;99.90
22813;DHT22;11573;51.334;3.244;2024-02-28T03:14:35;5.80;99.90
22813;DHT22;11573;51.334;3.244;2024-02-28T03:17:02;5.90;99.90
22813;DHT22;11573;51.334;3.244;2024-02-28T03:19:29;6.00;99.90
22813;DHT22;11573;51.334;3.244;2024-02-28T03:21:56;6.10;99.90
22813;DHT22;11573;51.334;3.244;2024-02-28T03:24:23;6.20;99.90
22813;DHT22;11573;51.334;3.244;2024-02-28T03:26:50;6.10;99.90
22813;DHT22;11573;51.334;3.244;2024-02-28T03:29:17;6.10;99.90
22813;DHT22;11573;51.334;3.244;2024-02-28T03:31:44;6.10;99.90
22813;DHT22;11573;51.334;3.244;2024-02-28T03:34:11;6.10;99.90
22813;DHT22;11573;51.334;3.244;2024-02-28T03:36:38;6.10;99.90
22813;DHT22;11573;51.334;3.244;2024-02-28T03:39:05;6.00;99.90
22813;DHT22;11573;51.334;3.244;2024-02-28T03:41:32;5.90;99.90
22813;DHT22;11573;51.334;3.244;2024-02-28T03:43:59;5.80;99.90
22813;DHT22;11573;51.334;3.244;2024-02-28T03:46:26;5.70;99.90
22813;DHT22;11573;51.334;3.244;2024-02-28T03:48:53;5.70;99.90
22813;DHT22;11573;51.334;3.244;2024-02-28T03:51:20;5.70;99.90
22813;DHT22;11573;51.334;3.244;2024-02-28T03:53:47;5.80;99.90
22813;DHT22;11573;51.334;3.244;2024-02-28T03:56:22;5.80;99.90
22813;DHT22;11573;51.334;3.244;2024-02-28T03:58:52;5.80;99.90
22813;DHT22;11573;51.334;3.244;2024-02-28T04:01:19;5.80;99.90
22813;DHT22;11573;51.334;3.244;2024-02-28T04:03:47;5.90;99.90
22813;DHT22;11573;51.334;3.244;2024-02-28T04:06:14;6.00;99.90
22813;DHT22;11573;51.334;3.244;2024-02-28T04:08:41;6.00;99.90
22813;DHT22;11573;51.334;3.244;2024-02-28T04:11:08;6.10;99.90
22813;DHT22;11573;51.334;3.244;2024-02-28T04:13:35;6.10;99.90
22813;DHT22;11573;51.334;3.244;2024-02-28T04:16:03;6.20;99.90
22813;DHT22;11573;51.334;3.244;2024-02-28T04:18:30;6.20;99.90
22813;DHT22;11573;51.334;3.244;2024-02-28T04:20:57;6.20;99.90
22813;DHT22;11573;51.334;3.244;2024-02-28T04:23:24;6.20;99.90
22813;DHT22;11573;51.334;3.244;2024-02-28T04:25:51;6.30;99.90
22813;DHT22;11573;51.334;3.244;2024-02-28T04:28:18;6.30;99.90
22813;DHT22;11573;51.334;3.244;2024-02-28T04:30:45;6.30;99.90
22813;DHT22;11573;51.334;3.244;2024-02-28T04:33:12;6.40;99.90
22813;DHT22;11573;51.334;3.244;2024-02-28T04:35:39;6.50;99.90
22813;DHT22;11573;51.334;3.244;2024-02-28T04:38:06;6.50;99.90
22813;DHT22;11573;51.334;3.244;2024-02-28T04:40:33;6.60;99.90
22813;DHT22;11573;51.334;3.244;2024-02-28T04:43:00;6.70;99.90
22813;DHT22;11573;51.334;3.244;2024-02-28T04:45:27;6.80;99.90
22813;DHT22;11573;51.334;3.244;2024-02-28T04:47:54;6.80;99.90
22813;DHT22;11573;51.334;3.244;2024-02-28T04:50:23;6.80;99.90
22813;DHT22;11573;51.334;3.244;2024-02-28T04:52:50;6.90;99.90
22813;DHT22;11573;51.334;3.244;2024-02-28T04:55:18;6.90;99.90
22813;DHT22;11573;51.334;3.244;2024-02-28T04:57:45;7.00;99.90
22813;DHT22;11573;51.334;3.244;2024-02-28T05:00:13;6.90;99.90
22813;DHT22;11573;51.334;3.244;2024-02-28T05:02:40;6.90;99.90
22813;DHT22;11573;51.334;3.244;2024-02-28T05:05:07;6.80;99.90
22813;DHT22;11573;51.334;3.244;2024-02-28T05:07:34;6.80;99.90
22813;DHT22;11573;51.334;3.244;2024-02-28T05:10:01;6.80;99.90
22813;DHT22;11573;51.334;3.244;2024-02-28T05:12:28;6.90;99.90
22813;DHT22;11573;51.334;3.244;2024-02-28T05:14:55;6.80;99.90
22813;DHT22;11573;51.334;3.244;2024-02-28T05:17:22;6.80;99.90
22813;DHT22;11573;51.334;3.244;2024-02-28T05:19:49;6.80;99.90
22813;DHT22;11573;51.334;3.244;2024-02-28T05:22:16;6.90;99.90
22813;DHT22;11573;51.334;3.244;2024-02-28T05:24:46;6.90;99.90
22813;DHT22;11573;51.334;3.244;2024-02-28T05:27:13;6.90;99.90
22813;DHT22;11573;51.334;3.244;2024-02-28T05:29:40;6.80;99.90
22813;DHT22;11573;51.334;3.244;2024-02-28T05:32:09;6.80;99.90
22813;DHT22;11573;51.334;3.244;2024-02-28T05:34:36;6.80;99.90
22813;DHT22;11573;51.334;3.244;2024-02-28T05:37:03;6.70;99.90
22813;DHT22;11573;51.334;3.244;2024-02-28T05:39:30;6.70;99.90
22813;DHT22;11573;51.334;3.244;2024-02-28T05:41:57;6.70;99.90
22813;DHT22;11573;51.334;3.244;2024-02-28T05:44:24;6.90;99.90
22813;DHT22;11573;51.334;3.244;2024-02-28T05:46:52;6.90;99.90
22813;DHT22;11573;51.334;3.244;2024-02-28T05:49:19;6.90;99.90
22813;DHT22;11573;51.334;3.244;2024-02-28T05:51:46;6.90;99.90
22813;DHT22;11573;51.334;3.244;2024-02-28T05:54:13;6.90;99.90
22813;DHT22;11573;51.334;3.244;2024-02-28T05:56:40;6.90;99.90
22813;DHT22;11573;51.334;3.244;2024-02-28T05:59:07;6.90;99.90
22813;DHT22;11573;51.334;3.244;2024-02-28T06:01:34;6.90;99.90
22813;DHT22;11573;51.334;3.244;2024-02-28T06:04:02;7.00;99.90
22813;DHT22;11573;51.334;3.244;2024-02-28T06:06:29;7.00;99.90
22813;DHT22;11573;51.334;3.244;2024-02-28T06:08:56;7.00;99.90
22813;DHT22;11573;51.334;3.244;2024-02-28T06:11:23;7.00;99.90
22813;DHT22;11573;51.334;3.244;2024-02-28T06:13:51;7.00;99.90
22813;DHT22;11573;51.334;3.244;2024-02-28T06:16:18;7.00;99.90
22813;DHT22;11573;51.334;3.244;2024-02-28T06:18:45;7.00;99.90
22813;DHT22;11573;51.334;3.244;2024-02-28T06:21:15;7.00;99.90
22813;DHT22;11573;51.334;3.244;2024-02-28T06:23:43;7.00;99.90
22813;DHT22;11573;51.334;3.244;2024-02-28T06:26:10;6.90;99.90
22813;DHT22;11573;51.334;3.244;2024-02-28T06:28:44;7.00;99.90
22813;DHT22;11573;51.334;3.244;2024-02-28T06:31:14;7.00;99.90
22813;DHT22;11573;51.334;3.244;2024-02-28T06:33:45;7.00;99.90
22813;DHT22;11573;51.334;3.244;2024-02-28T06:36:13;7.10;99.90
22813;DHT22;11573;51.334;3.244;2024-02-28T06:38:40;6.90;99.90
22813;DHT22;11573;51.334;3.244;2024-02-28T06:41:07;7.00;99.90
22813;DHT22;11573;51.334;3.244;2024-02-28T06:43:34;7.10;99.90
22813;DHT22;11573;51.334;3.244;2024-02-28T06:46:04;7.10;99.90
22813;DHT22;11573;51.334;3.244;2024-02-28T06:48:31;7.10;99.90
22813;DHT22;11573;51.334;3.244;2024-02-28T06:50:58;7.10;99.90
22813;DHT22;11573;51.334;3.244;2024-02-28T06:53:25;7.10;99.90
22813;DHT22;11573;51.334;3.244;2024-02-28T06:55:53;7.20;99.90
22813;DHT22;11573;51.334;3.244;2024-02-28T06:58:20;7.20;99.90
22813;DHT22;11573;51.334;3.244;2024-02-28T07:00:48;7.20;99.90
22813;DHT22;11573;51.334;3.244;2024-02-28T07:03:20;7.20;99.90
22813;DHT22;11573;51.334;3.244;2024-02-28T07:05:47;7.20;99.90
22813;DHT22;11573;51.334;3.244;2024-02-28T07:08:14;7.20;99.90
22813;DHT22;11573;51.334;3.244;2024-02-28T07:10:41;7.30;99.90
22813;DHT22;11573;51.334;3.244;2024-02-28T07:13:10;7.30;99.90
22813;DHT22;11573;51.334;3.244;2024-02-28T07:15:37;7.30;99.90
22813;DHT22;11573;51.334;3.244;2024-02-28T07:18:07;7.50;99.90
22813;DHT22;11573;51.334;3.244;2024-02-28T07:20:34;7.50;99.90
22813;DHT22;11573;51.334;3.244;2024-02-28T07:23:01;7.60;99.90
22813;DHT22;11573;51.334;3.244;2024-02-28T07:25:28;7.70;99.90
22813;DHT22;11573;51.334;3.244;2024-02-28T07:27:57;7.80;99.90
22813;DHT22;11573;51.334;3.244;2024-02-28T07:30:26;7.80;99.90
22813;DHT22;11573;51.334;3.244;2024-02-28T07:32:53;8.00;99.90
22813;DHT22;11573;51.334;3.244;2024-02-28T07:35:20;8.10;99.90
22813;DHT22;11573;51.334;3.244;2024-02-28T07:37:48;8.20;99.90
22813;DHT22;11573;51.334;3.244;2024-02-28T07:40:15;8.20;99.90
22813;DHT22;11573;51.334;3.244;2024-02-28T07:42:42;8.20;99.90
22813;DHT22;11573;51.334;3.244;2024-02-28T07:45:09;8.10;99.90
22813;DHT22;11573;51.334;3.244;2024-02-28T07:47:37;8.10;99.90
22813;DHT22;11573;51.334;3.244;2024-02-28T07:50:05;8.10;99.90
22813;DHT22;11573;51.334;3.244;2024-02-28T07:52:32;8.10;99.90
22813;DHT22;11573;51.334;3.244;2024-02-28T07:55:01;8.20;99.90
22813;DHT22;11573;51.334;3.244;2024-02-28T07:57:30;8.30;99.90
22813;DHT22;11573;51.334;3.244;2024-02-28T07:59:57;8.20;99.90
22813;DHT22;11573;51.334;3.244;2024-02-28T08:02:24;8.20;99.90
22813;DHT22;11573;51.334;3.244;2024-02-28T08:04:52;8.30;99.90
22813;DHT22;11573;51.334;3.244;2024-02-28T08:07:19;8.30;99.90
22813;DHT22;11573;51.334;3.244;2024-02-28T08:09:46;8.30;99.90
22813;DHT22;11573;51.334;3.244;2024-02-28T08:12:13;8.40;99.90
22813;DHT22;11573;51.334;3.244;2024-02-28T08:14:40;8.40;99.90
22813;DHT22;11573;51.334;3.244;2024-02-28T08:17:07;8.40;99.90
22813;DHT22;11573;51.334;3.244;2024-02-28T08:19:34;8.50;99.90
22813;DHT22;11573;51.334;3.244;2024-02-28T08:22:02;8.40;99.90
22813;DHT22;11573;51.334;3.244;2024-02-28T08:24:29;8.60;99.90
22813;DHT22;11573;51.334;3.244;2024-02-28T08:26:56;8.50;99.90
22813;DHT22;11573;51.334;3.244;2024-02-28T08:29:23;8.60;99.90
22813;DHT22;11573;51.334;3.244;2024-02-28T08:31:51;8.70;99.90
22813;DHT22;11573;51.334;3.244;2024-02-28T08:34:18;8.70;99.90
22813;DHT22;11573;51.334;3.244;2024-02-28T08:36:45;8.80;99.90
22813;DHT22;11573;51.334;3.244;2024-02-28T08:39:12;9.00;99.90
22813;DHT22;11573;51.334;3.244;2024-02-28T08:41:39;9.00;99.90
22813;DHT22;11573;51.334;3.244;2024-02-28T08:44:06;9.10;99.90
22813;DHT22;11573;51.334;3.244;2024-02-28T08:46:33;9.30;99.90
22813;DHT22;11573;51.334;3.244;2024-02-28T08:49:00;9.40;99.90
22813;DHT22;11573;51.334;3.244;2024-02-28T08:51:27;9.50;99.90
22813;DHT22;11573;51.334;3.244;2024-02-28T08:53:54;9.40;99.90
22813;DHT22;11573;51.334;3.244;2024-02-28T08:56:22;9.40;99.90
22813;DHT22;11573;51.334;3.244;2024-02-28T08:58:49;9.40;99.90
22813;DHT22;11573;51.334;3.244;2024-02-28T09:01:16;9.30;99.90
22813;DHT22;11573;51.334;3.244;2024-02-28T09:03:44;9.40;99.90
22813;DHT22;11573;51.334;3.244;2024-02-28T09:06:11;9.40;99.90
22813;DHT22;11573;51.334;3.244;2024-02-28T09:08:38;9.50;99.90
22813;DHT22;11573;51.334;3.244;2024-02-28T09:11:05;9.50;99.90
22813;DHT22;11573;51.334;3.244;2024-02-28T09:13:33;9.60;99.90
22813;DHT22;11573;51.334;3.244;2024-02-28T09:16:00;9.60;99.90
22813;DHT22;11573;51.334;3.244;2024-02-28T09:18:27;9.70;99.90
22813;DHT22;11573;51.334;3.244;2024-02-28T09:20:54;9.90;99.90
22813;DHT22;11573;51.334;3.244;2024-02-28T09:23:21;10.10;99.90
22813;DHT22;11573;51.334;3.244;2024-02-28T09:25:48;10.10;99.90
22813;DHT22;11573;51.334;3.244;2024-02-28T09:28:15;10.40;99.90
22813;DHT22;11573;51.334;3.244;2024-02-28T09:30:43;10.50;99.90
22813;DHT22;11573;51.334;3.244;2024-02-28T09:33:18;10.80;99.90
22813;DHT22;11573;51.334;3.244;2024-02-28T09:35:46;10.90;99.90
22813;DHT22;11573;51.334;3.244;2024-02-28T09:38:13;10.90;99.90
22813;DHT22;11573;51.334;3.244;2024-02-28T09:40:40;10.90;99.90
22813;DHT22;11573;51.334;3.244;2024-02-28T09:43:15;10.80;99.90
22813;DHT22;11573;51.334;3.244;2024-02-28T09:45:46;10.70;99.90
22813;DHT22;11573;51.334;3.244;2024-02-28T09:48:16;10.60;99.90
22813;DHT22;11573;51.334;3.244;2024-02-28T09:50:45;10.70;99.90
22813;DHT22;11573;51.334;3.244;2024-02-28T09:53:12;10.70;99.90
22813;DHT22;11573;51.334;3.244;2024-02-28T09:55:39;10.70;99.90
22813;DHT22;11573;51.334;3.244;2024-02-28T09:58:08;10.60;99.90
22813;DHT22;11573;51.334;3.244;2024-02-28T10:00:36;10.60;99.90
22813;DHT22;11573;51.334;3.244;2024-02-28T10:03:05;10.50;99.90
22813;DHT22;11573;51.334;3.244;2024-02-28T10:05:34;10.50;99.90
22813;DHT22;11573;51.334;3.244;2024-02-28T10:08:01;10.50;99.90
22813;DHT22;11573;51.334;3.244;2024-02-28T10:10:28;10.60;99.90
22813;DHT22;11573;51.334;3.244;2024-02-28T10:12:56;10.70;99.90
22813;DHT22;11573;51.334;3.244;2024-02-28T10:15:26;10.60;99.90
22813;DHT22;11573;51.334;3.244;2024-02-28T10:17:53;10.40;99.90
22813;DHT22;11573;51.334;3.244;2024-02-28T10:20:20;10.50;99.90
22813;DHT22;11573;51.334;3.244;2024-02-28T10:22:46;10.50;99.90
22813;DHT22;11573;51.334;3.244;2024-02-28T10:25:14;10.50;99.90
22813;DHT22;11573;51.334;3.244;2024-02-28T10:27:41;10.60;99.90
22813;DHT22;11573;51.334;3.244;2024-02-28T10:30:08;10.70;99.90
22813;DHT22;11573;51.334;3.244;2024-02-28T10:32:35;10.90;99.90
22813;DHT22;11573;51.334;3.244;2024-02-28T10:35:04;10.90;99.90
22813;DHT22;11573;51.334;3.244;2024-02-28T10:37:37;11.00;99.90
22813;DHT22;11573;51.334;3.244;2024-02-28T10:40:06;11.10;99.90
22813;DHT22;11573;51.334;3.244;2024-02-28T10:42:35;11.10;99.90
22813;DHT22;11573;51.334;3.244;2024-02-28T10:45:03;11.20;99.90
22813;DHT22;11573;51.334;3.244;2024-02-28T10:47:47;11.10;99.90
22813;DHT22;11573;51.334;3.244;2024-02-28T10:50:17;10.80;99.90
22813;DHT22;11573;51.334;3.244;2024-02-28T10:52:44;10.80;99.90
22813;DHT22;11573;51.334;3.244;2024-02-28T10:55:21;10.70;99.90
22813;DHT22;11573;51.334;3.244;2024-02-28T10:57:57;10.70;99.90
22813;DHT22;11573;51.334;3.244;2024-02-28T11:00:25;10.60;99.90
22813;DHT22;11573;51.334;3.244;2024-02-28T11:02:52;10.70;99.90
22813;DHT22;11573;51.334;3.244;2024-02-28T11:05:19;10.80;99.90
22813;DHT22;11573;51.334;3.244;2024-02-28T11:07:50;10.80;99.90
22813;DHT22;11573;51.334;3.244;2024-02-28T11:10:17;10.90;99.90
22813;DHT22;11573;51.334;3.244;2024-02-28T11:12:54;11.00;99.90
22813;DHT22;11573;51.334;3.244;2024-02-28T11:15:25;11.00;99.90
22813;DHT22;11573;51.334;3.244;2024-02-28T11:17:54;11.00;99.90
22813;DHT22;11573;51.334;3.244;2024-02-28T11:20:21;11.00;99.90
22813;DHT22;11573;51.334;3.244;2024-02-28T11:22:57;11.10;99.90
22813;DHT22;11573;51.334;3.244;2024-02-28T11:25:24;11.00;99.90
22813;DHT22;11573;51.334;3.244;2024-02-28T11:27:51;11.00;99.90
22813;DHT22;11573;51.334;3.244;2024-02-28T11:30:18;11.00;99.90
22813;DHT22;11573;51.334;3.244;2024-02-28T11:32:45;10.90;99.90
22813;DHT22;11573;51.334;3.244;2024-02-28T11:35:13;10.90;99.90
22813;DHT22;11573;51.334;3.244;2024-02-28T11:37:40;11.10;99.90
22813;DHT22;11573;51.334;3.244;2024-02-28T11:40:08;11.20;99.90
22813;DHT22;11573;51.334;3.244;2024-02-28T11:42:38;11.20;99.90
22813;DHT22;11573;51.334;3.244;2024-02-28T11:45:09;11.10;99.90
22813;DHT22;11573;51.334;3.244;2024-02-28T11:47:36;11.00;99.90
22813;DHT22;11573;51.334;3.244;2024-02-28T11:50:04;10.90;99.90
22813;DHT22;11573;51.334;3.244;2024-02-28T11:52:35;10.90;99.90
22813;DHT22;11573;51.334;3.244;2024-02-28T11:55:02;10.90;99.90
22813;DHT22;11573;51.334;3.244;2024-02-28T11:57:29;10.90;99.90
22813;DHT22;11573;51.334;3.244;2024-02-28T12:00:10;10.80;99.90
22813;DHT22;11573;51.334;3.244;2024-02-28T12:02:40;10.70;99.90
22813;DHT22;11573;51.334;3.244;2024-02-28T12:05:07;10.50;99.90
22813;DHT22;11573;51.334;3.244;2024-02-28T12:07:36;10.50;99.90
22813;DHT22;11573;51.334;3.244;2024-02-28T12:10:04;10.30;99.90
22813;DHT22;11573;51.334;3.244;2024-02-28T12:12:31;10.40;99.90
22813;DHT22;11573;51.334;3.244;2024-02-28T12:14:59;10.50;99.90
22813;DHT22;11573;51.334;3.244;2024-02-28T12:17:32;10.40;99.90
22813;DHT22;11573;51.334;3.244;2024-02-28T12:19:59;10.40;99.90
22813;DHT22;11573;51.334;3.244;2024-02-28T12:22:27;10.50;99.90
22813;DHT22;11573;51.334;3.244;2024-02-28T12:24:54;10.40;99.90
22813;DHT22;11573;51.334;3.244;2024-02-28T12:27:22;10.50;99.90
22813;DHT22;11573;51.334;3.244;2024-02-28T12:29:49;10.70;99.90
22813;DHT22;11573;51.334;3.244;2024-02-28T12:32:15;10.90;99.90
22813;DHT22;11573;51.334;3.244;2024-02-28T12:34:44;11.10;99.90
22813;DHT22;11573;51.334;3.244;2024-02-28T12:37:11;11.20;99.90
22813;DHT22;11573;51.334;3.244;2024-02-28T12:39:38;11.20;99.90
22813;DHT22;11573;51.334;3.244;2024-02-28T12:42:07;11.20;99.90
22813;DHT22;11573;51.334;3.244;2024-02-28T12:44:34;11.10;99.90
22813;DHT22;11573;51.334;3.244;2024-02-28T12:47:01;10.90;99.90
22813;DHT22;11573;51.334;3.244;2024-02-28T12:49:28;10.70;99.90
22813;DHT22;11573;51.334;3.244;2024-02-28T12:51:55;10.70;99.90
22813;DHT22;11573;51.334;3.244;2024-02-28T12:54:23;10.80;99.90
22813;DHT22;11573;51.334;3.244;2024-02-28T12:56:50;10.80;99.90
22813;DHT22;11573;51.334;3.244;2024-02-28T12:59:17;11.00;99.90
22813;DHT22;11573;51.334;3.244;2024-02-28T13:01:44;11.30;99.90
22813;DHT22;11573;51.334;3.244;2024-02-28T13:04:14;11.40;99.90
22813;DHT22;11573;51.334;3.244;2024-02-28T13:06:41;11.50;99.90
22813;DHT22;11573;51.334;3.244;2024-02-28T13:09:08;11.50;99.90
22813;DHT22;11573;51.334;3.244;2024-02-28T13:11:39;11.70;99.90
22813;DHT22;11573;51.334;3.244;2024-02-28T13:14:07;11.80;99.90
22813;DHT22;11573;51.334;3.244;2024-02-28T13:16:35;12.00;99.90
22813;DHT22;11573;51.334;3.244;2024-02-28T13:19:02;11.90;99.90
22813;DHT22;11573;51.334;3.244;2024-02-28T13:21:31;11.80;99.90
22813;DHT22;11573;51.334;3.244;2024-02-28T13:24:02;11.80;99.90
22813;DHT22;11573;51.334;3.244;2024-02-28T13:26:32;11.80;99.90
22813;DHT22;11573;51.334;3.244;2024-02-28T13:28:59;11.90;99.90
22813;DHT22;11573;51.334;3.244;2024-02-28T13:31:26;12.00;99.90
22813;DHT22;11573;51.334;3.244;2024-02-28T13:33:53;12.00;99.90
22813;DHT22;11573;51.334;3.244;2024-02-28T13:36:20;12.10;99.90
22813;DHT22;11573;51.334;3.244;2024-02-28T13:38:47;12.00;99.90
22813;DHT22;11573;51.334;3.244;2024-02-28T13:41:14;12.00;99.90
22813;DHT22;11573;51.334;3.244;2024-02-28T13:43:43;12.10;99.90
22813;DHT22;11573;51.334;3.244;2024-02-28T13:46:10;12.00;99.90
22813;DHT22;11573;51.334;3.244;2024-02-28T13:48:37;11.80;99.90
22813;DHT22;11573;51.334;3.244;2024-02-28T13:51:04;11.70;99.90
22813;DHT22;11573;51.334;3.244;2024-02-28T13:53:31;11.60;99.90
22813;DHT22;11573;51.334;3.244;2024-02-28T13:55:59;11.70;99.90
22813;DHT22;11573;51.334;3.244;2024-02-28T13:58:26;11.80;99.90
22813;DHT22;11573;51.334;3.244;2024-02-28T14:01:05;11.70;99.90
22813;DHT22;11573;51.334;3.244;2024-02-28T14:03:33;11.70;99.90
22813;DHT22;11573;51.334;3.244;2024-02-28T14:06:01;11.60;99.90
22813;DHT22;11573;51.334;3.244;2024-02-28T14:08:28;11.70;99.90
22813;DHT22;11573;51.334;3.244;2024-02-28T14:11:01;11.80;99.90
22813;DHT22;11573;51.334;3.244;2024-02-28T14:13:28;11.70;99.90
22813;DHT22;11573;51.334;3.244;2024-02-28T14:15:55;11.50;99.90
22813;DHT22;11573;51.334;3.244;2024-02-28T14:18:22;11.50;99.90
22813;DHT22;11573;51.334;3.244;2024-02-28T14:20:50;11.50;99.90
22813;DHT22;11573;51.334;3.244;2024-02-28T14:23:17;11.60;99.90
22813;DHT22;11573;51.334;3.244;2024-02-28T14:25:44;11.70;99.90
22813;DHT22;11573;51.334;3.244;2024-02-28T14:28:11;11.70;99.90
22813;DHT22;11573;51.334;3.244;2024-02-28T14:30:39;11.60;99.90
22813;DHT22;11573;51.334;3.244;2024-02-28T14:33:06;11.60;99.90
22813;DHT22;11573;51.334;3.244;2024-02-28T14:35:35;11.40;99.90
22813;DHT22;11573;51.334;3.244;2024-02-28T14:38:05;11.30;99.90
22813;DHT22;11573;51.334;3.244;2024-02-28T14:40:33;11.20;99.90
22813;DHT22;11573;51.334;3.244;2024-02-28T14:43:00;11.20;99.90
22813;DHT22;11573;51.334;3.244;2024-02-28T14:45:27;11.20;99.90
22813;DHT22;11573;51.334;3.244;2024-02-28T14:47:55;11.20;99.90
22813;DHT22;11573;51.334;3.244;2024-02-28T14:50:22;11.20;99.90
22813;DHT22;11573;51.334;3.244;2024-02-28T14:52:50;11.10;99.90
22813;DHT22;11573;51.334;3.244;2024-02-28T14:55:17;11.10;99.90
22813;DHT22;11573;51.334;3.244;2024-02-28T14:57:45;11.20;99.90
22813;DHT22;11573;51.334;3.244;2024-02-28T15:00:12;11.20;99.90
22813;DHT22;11573;51.334;3.244;2024-02-28T15:02:43;11.10;99.90
22813;DHT22;11573;51.334;3.244;2024-02-28T15:05:11;11.10;99.90
22813;DHT22;11573;51.334;3.244;2024-02-28T15:07:38;11.10;99.90
22813;DHT22;11573;51.334;3.244;2024-02-28T15:10:06;11.00;99.90
22813;DHT22;11573;51.334;3.244;2024-02-28T15:12:34;11.00;99.90
22813;DHT22;11573;51.334;3.244;2024-02-28T15:15:03;10.90;99.90
22813;DHT22;11573;51.334;3.244;2024-02-28T15:17:34;10.90;99.90
22813;DHT22;11573;51.334;3.244;2024-02-28T15:20:02;11.00;99.90
22813;DHT22;11573;51.334;3.244;2024-02-28T15:22:35;11.00;99.90
22813;DHT22;11573;51.334;3.244;2024-02-28T15:25:02;11.00;99.90
22813;DHT22;11573;51.334;3.244;2024-02-28T15:27:30;11.00;99.90
22813;DHT22;11573;51.334;3.244;2024-02-28T15:29:57;11.10;99.90
22813;DHT22;11573;51.334;3.244;2024-02-28T15:32:24;11.00;99.90
22813;DHT22;11573;51.334;3.244;2024-02-28T15:34:51;10.90;99.90
22813;DHT22;11573;51.334;3.244;2024-02-28T15:37:18;11.00;99.90
22813;DHT22;11573;51.334;3.244;2024-02-28T15:39:45;11.00;99.90
22813;DHT22;11573;51.334;3.244;2024-02-28T15:42:13;11.10;99.90